TIPO2: N. Fork Red River nr Tipton, OK

Data processed at Wed May 22 2019 23:30


All information presented herein is the property of the government of the United States of America and may be revised or deleted at any time without prior notice.
Dissemination of this information without the expressed written consent of the Public Affairs Office, Tulsa District U.S. Army Corps of Engineers is strictly prohibited.
These data are gathered electronically and, as presented, have not undergone any form of quality control. These data are not guaranteed to be valid or correct.
Go to home page.
Go to station list.
Go to home page.

Upstream stations:

Downstream station:
Previous Day
Next Day
Current Day
    
SHEF ID:       TIPO2     North Fork Red River near Tipton
STATION TYPE:  
Regulating: Stage =    14.00, Flow =     9148

                STAGE  RIV-FLOW   VOLTAGE  BAT-LOAD
                   ft       cfs      volt      volt
              Ccp-Rev   Ccp-Rev   Ccp-Rev   Ccp-Rev
(US/Central)
05/22 00:00      9.72      2083     12.57     12.41
05/22 01:00     10.25      2531     12.57     12.41
05/22 02:00     10.87      3136     12.57     12.41
05/22 03:00     11.46      3802     12.57     12.41
05/22 04:00     11.92      4397     12.57     12.41
05/22 05:00     12.24      4915     12.57     12.41
05/22 06:00     12.50      5363     12.49     12.41
05/22 07:00     12.71      5744     12.49     12.33
05/22 08:00     12.89      6141     12.65     12.49
05/22 09:00     13.07      6557     13.05     12.81
05/22 10:00     13.19      6845     13.13     12.89
05/22 11:00     13.30      7117     13.60     13.29
05/22 12:00     13.42      7452     13.84     13.29
05/22 13:00     13.46      7567     13.44     13.29
05/22 14:00     13.56      7859     13.53     13.21
05/22 15:00     13.64      8099     13.53     13.13
05/22 16:00     13.71      8313     13.44     13.05
05/22 17:00     13.77      8500     13.68     13.05
05/22 18:00     13.80      8595     13.84     13.05
05/22 19:00     13.87      8786     13.92     13.05
05/22 20:00     13.86      8758     12.97     12.89
05/22 21:00     13.91      8896     12.65     12.65
05/22 22:00     13.95      9008     12.65     12.49
05/22 23:00      ----      ----      ----      ----